createdAt,value
2023-03-26T00:01:05.870Z,100.00
2023-03-26T00:03:33.729Z,100.00
2023-03-26T00:06:05.127Z,100.00
2023-03-26T00:08:32.402Z,100.00
2023-03-26T00:11:00.628Z,100.00
2023-03-26T00:13:29.192Z,100.00
2023-03-26T00:15:55.973Z,100.00
2023-03-26T00:18:30.126Z,100.00
2023-03-26T00:20:58.602Z,100.00
2023-03-26T00:23:27.053Z,100.00
2023-03-26T00:25:54.797Z,100.00
2023-03-26T00:28:23.569Z,100.00
2023-03-26T00:30:57.080Z,100.00
2023-03-26T00:33:24.045Z,100.00
2023-03-26T00:35:59.145Z,100.00
2023-03-26T00:38:27.427Z,100.00
2023-03-26T00:40:54.896Z,100.00
2023-03-26T00:43:22.908Z,100.00
2023-03-26T00:45:52.277Z,100.00
2023-03-26T00:48:19.120Z,100.00
2023-03-26T00:50:47.392Z,100.00
2023-03-26T00:53:15.734Z,100.00
2023-03-26T00:55:44.874Z,100.00
2023-03-26T00:58:12.901Z,100.00
2023-03-26T01:00:50.905Z,100.00
2023-03-26T01:03:27.774Z,100.00
2023-03-26T01:06:04.917Z,100.00
2023-03-26T01:08:35.392Z,100.00
2023-03-26T01:11:07.449Z,100.00
2023-03-26T01:13:38.148Z,100.00
2023-03-26T01:16:20.364Z,100.00
2023-03-26T01:18:48.753Z,100.00
2023-03-26T01:21:22.773Z,100.00
2023-03-26T01:24:09.755Z,100.00
2023-03-26T01:26:52.794Z,100.00
2023-03-26T01:29:39.302Z,100.00
2023-03-26T01:32:24.404Z,100.00
2023-03-26T01:35:13.173Z,100.00
2023-03-26T01:38:10.889Z,100.00
2023-03-26T01:41:03.135Z,100.00
2023-03-26T01:43:51.113Z,100.00
2023-03-26T01:46:19.497Z,100.00
2023-03-26T01:48:47.391Z,100.00
2023-03-26T01:51:25.678Z,100.00
2023-03-26T01:53:53.863Z,100.00
2023-03-26T01:56:35.629Z,100.00
2023-03-26T01:59:17.098Z,100.00
2023-03-26T02:01:55.906Z,100.00
2023-03-26T02:04:36.233Z,100.00
2023-03-26T02:07:09.331Z,100.00
2023-03-26T02:09:47.174Z,100.00
2023-03-26T02:12:14.832Z,100.00
2023-03-26T02:14:43.080Z,100.00
2023-03-26T02:17:11.200Z,100.00
2023-03-26T02:19:42.349Z,100.00
2023-03-26T02:22:11.386Z,100.00
2023-03-26T02:24:38.686Z,100.00
2023-03-26T02:27:10.030Z,100.00
2023-03-26T02:29:38.210Z,100.00
2023-03-26T02:32:08.629Z,100.00
2023-03-26T02:34:36.890Z,100.00
2023-03-26T02:37:03.608Z,100.00
2023-03-26T02:39:30.184Z,100.00
2023-03-26T02:41:56.821Z,100.00
2023-03-26T02:44:23.527Z,100.00
2023-03-26T02:46:50.367Z,100.00
2023-03-26T02:49:17.661Z,100.00
2023-03-26T02:51:44.531Z,100.00
2023-03-26T02:54:11.069Z,100.00
2023-03-26T02:56:37.971Z,100.00
2023-03-26T02:59:04.647Z,100.00
2023-03-26T03:01:35.105Z,100.00
2023-03-26T03:04:04.350Z,100.00
2023-03-26T03:06:32.470Z,100.00
2023-03-26T03:09:02.656Z,100.00
2023-03-26T03:11:29.262Z,100.00
2023-03-26T03:13:56.186Z,100.00
2023-03-26T03:16:23.293Z,100.00
2023-03-26T03:18:54.693Z,100.00
2023-03-26T03:21:21.921Z,100.00
2023-03-26T03:23:48.581Z,100.00
2023-03-26T03:26:18.074Z,100.00
2023-03-26T03:28:45.322Z,100.00
2023-03-26T03:31:12.027Z,100.00
2023-03-26T03:33:38.765Z,100.00
2023-03-26T03:36:10.514Z,100.00
2023-03-26T03:38:48.119Z,100.00
2023-03-26T03:41:15.230Z,100.00
2023-03-26T03:43:41.827Z,100.00
2023-03-26T03:46:08.472Z,100.00
2023-03-26T03:48:38.148Z,100.00
2023-03-26T03:51:06.147Z,100.00
2023-03-26T03:53:36.922Z,100.00
2023-03-26T03:56:04.678Z,100.00
2023-03-26T03:58:31.400Z,100.00
2023-03-26T04:01:04.654Z,100.00
2023-03-26T04:03:33.538Z,100.00
2023-03-26T04:06:01.171Z,100.00
2023-03-26T04:08:27.720Z,100.00
2023-03-26T04:10:54.409Z,100.00
2023-03-26T04:13:21.628Z,100.00
2023-03-26T04:15:48.414Z,100.00
2023-03-26T04:18:15.505Z,100.00
2023-03-26T04:20:47.415Z,100.00
2023-03-26T04:23:15.829Z,100.00
2023-03-26T04:25:48.510Z,100.00
2023-03-26T04:28:28.796Z,100.00
2023-03-26T04:31:00.738Z,100.00
2023-03-26T04:33:32.865Z,100.00
2023-03-26T04:36:02.931Z,100.00
2023-03-26T04:38:33.628Z,100.00
2023-03-26T04:41:04.540Z,100.00
2023-03-26T04:43:31.498Z,100.00
2023-03-26T04:45:58.134Z,100.00
2023-03-26T04:48:24.755Z,100.00
2023-03-26T04:50:51.461Z,100.00
2023-03-26T04:53:21.480Z,100.00
2023-03-26T04:55:57.322Z,100.00
2023-03-26T04:58:30.234Z,100.00
2023-03-26T05:00:57.455Z,100.00
2023-03-26T05:03:25.752Z,100.00
2023-03-26T05:05:52.595Z,100.00
2023-03-26T05:08:19.325Z,100.00
2023-03-26T05:10:45.932Z,100.00
2023-03-26T05:13:12.508Z,100.00
2023-03-26T05:15:40.529Z,100.00
2023-03-26T05:18:08.885Z,100.00
2023-03-26T05:20:36.072Z,100.00
2023-03-26T05:23:02.930Z,100.00
2023-03-26T05:25:29.677Z,100.00
2023-03-26T05:27:56.420Z,100.00
2023-03-26T05:30:23.060Z,100.00
2023-03-26T05:32:50.064Z,100.00
2023-03-26T05:35:19.186Z,100.00
2023-03-26T05:37:48.037Z,100.00
2023-03-26T05:40:17.198Z,100.00
2023-03-26T05:42:44.138Z,100.00
2023-03-26T05:45:13.574Z,100.00
2023-03-26T05:47:40.673Z,100.00
2023-03-26T05:50:08.696Z,100.00
2023-03-26T05:52:35.697Z,100.00
2023-03-26T05:55:02.792Z,100.00
2023-03-26T05:57:31.130Z,100.00
2023-03-26T05:59:57.749Z,100.00
2023-03-26T06:02:24.537Z,100.00
2023-03-26T06:04:51.207Z,100.00
2023-03-26T06:07:18.756Z,100.00
2023-03-26T06:09:45.815Z,100.00
2023-03-26T06:12:13.448Z,100.00
2023-03-26T06:14:42.722Z,100.00
2023-03-26T06:17:10.497Z,100.00
2023-03-26T06:19:37.300Z,100.00
2023-03-26T06:22:04.792Z,100.00
2023-03-26T06:24:32.290Z,100.00
2023-03-26T06:26:59.206Z,100.00
2023-03-26T06:29:26.028Z,100.00
2023-03-26T06:31:52.853Z,100.00
2023-03-26T06:34:19.939Z,100.00
2023-03-26T06:36:52.670Z,100.00
2023-03-26T06:39:20.204Z,100.00
2023-03-26T06:41:48.237Z,100.00
2023-03-26T06:44:16.055Z,100.00
2023-03-26T06:46:42.859Z,100.00
2023-03-26T06:49:09.736Z,100.00
2023-03-26T06:51:37.730Z,100.00
2023-03-26T06:54:04.507Z,100.00
2023-03-26T06:56:31.157Z,100.00
2023-03-26T06:58:57.766Z,100.00
2023-03-26T07:01:24.477Z,100.00
2023-03-26T07:03:51.093Z,100.00
2023-03-26T07:06:17.734Z,100.00
2023-03-26T07:08:44.554Z,100.00
2023-03-26T07:11:11.390Z,100.00
2023-03-26T07:13:39.981Z,100.00
2023-03-26T07:16:07.318Z,100.00
2023-03-26T07:18:34.074Z,100.00
2023-03-26T07:21:01.422Z,100.00
2023-03-26T07:23:28.349Z,100.00
2023-03-26T07:25:55.581Z,100.00
2023-03-26T07:29:04.140Z,100.00
2023-03-26T07:32:17.898Z,100.00
2023-03-26T07:35:16.765Z,100.00
2023-03-26T07:37:55.854Z,100.00
2023-03-26T07:40:47.068Z,100.00
2023-03-26T07:43:35.623Z,100.00
2023-03-26T07:46:02.530Z,100.00
2023-03-26T07:48:41.002Z,100.00
2023-03-26T07:51:08.551Z,100.00
2023-03-26T07:53:35.487Z,100.00
2023-03-26T07:56:05.310Z,100.00
2023-03-26T07:59:01.836Z,100.00
2023-03-26T08:01:43.629Z,100.00
2023-03-26T08:04:26.461Z,100.00
2023-03-26T08:07:17.937Z,100.00
2023-03-26T08:10:09.458Z,100.00
2023-03-26T08:12:55.454Z,100.00
2023-03-26T08:15:25.860Z,100.00
2023-03-26T08:18:19.376Z,100.00
2023-03-26T08:20:50.089Z,100.00
2023-03-26T08:23:29.029Z,100.00
2023-03-26T08:26:23.093Z,100.00
2023-03-26T08:29:07.674Z,100.00
2023-03-26T08:31:39.009Z,100.00
2023-03-26T08:34:06.473Z,100.00
2023-03-26T08:36:33.111Z,100.00
2023-03-26T08:38:59.709Z,100.00
2023-03-26T08:41:42.929Z,100.00
2023-03-26T08:44:34.361Z,100.00
2023-03-26T08:47:19.449Z,100.00
2023-03-26T08:50:13.733Z,100.00
2023-03-26T08:52:56.782Z,100.00
2023-03-26T08:55:43.247Z,100.00
2023-03-26T08:58:38.436Z,100.00
2023-03-26T09:01:23.205Z,100.00
2023-03-26T09:04:18.621Z,100.00
2023-03-26T09:06:54.575Z,100.00
2023-03-26T09:10:09.477Z,100.00
2023-03-26T09:13:03.844Z,100.00
2023-03-26T09:15:42.506Z,100.00
2023-03-26T09:18:14.881Z,100.00
2023-03-26T09:20:54.765Z,100.00
2023-03-26T09:23:52.743Z,100.00
2023-03-26T09:26:22.361Z,100.00
2023-03-26T09:29:08.525Z,100.00
2023-03-26T09:31:58.212Z,100.00
2023-03-26T09:34:33.015Z,100.00
2023-03-26T09:37:06.380Z,100.00
2023-03-26T09:39:46.411Z,100.00
2023-03-26T09:42:31.448Z,100.00
2023-03-26T09:45:03.852Z,100.00
2023-03-26T09:47:52.972Z,100.00
2023-03-26T09:50:30.199Z,100.00
2023-03-26T09:53:34.873Z,100.00
2023-03-26T09:56:11.819Z,100.00
2023-03-26T09:58:38.351Z,100.00
2023-03-26T10:01:26.249Z,100.00
2023-03-26T10:04:11.161Z,100.00
2023-03-26T10:07:32.039Z,100.00
2023-03-26T10:10:13.386Z,100.00
2023-03-26T10:12:43.537Z,100.00
2023-03-26T10:15:25.469Z,100.00
2023-03-26T10:18:26.752Z,100.00
2023-03-26T10:21:14.238Z,100.00
2023-03-26T10:24:14.389Z,100.00
2023-03-26T10:27:09.348Z,100.00
2023-03-26T10:29:57.658Z,100.00
2023-03-26T10:32:24.266Z,100.00
2023-03-26T10:35:16.710Z,100.00
2023-03-26T10:38:06.280Z,100.00
2023-03-26T10:40:54.968Z,100.00
2023-03-26T10:43:46.407Z,100.00
2023-03-26T10:46:21.687Z,100.00
2023-03-26T10:49:26.866Z,100.00
2023-03-26T10:51:58.948Z,100.00
2023-03-26T10:54:46.543Z,100.00
2023-03-26T10:57:22.342Z,100.00
2023-03-26T10:59:48.951Z,100.00
2023-03-26T11:02:30.491Z,100.00
2023-03-26T11:05:29.724Z,100.00
2023-03-26T11:08:06.637Z,100.00
2023-03-26T11:11:20.701Z,100.00
2023-03-26T11:14:07.055Z,100.00
2023-03-26T11:16:42.461Z,100.00
2023-03-26T11:19:14.988Z,100.00
2023-03-26T11:21:48.586Z,100.00
2023-03-26T11:24:45.433Z,100.00
2023-03-26T11:27:17.438Z,100.00
2023-03-26T11:30:03.445Z,100.00
2023-03-26T11:33:02.720Z,100.00
2023-03-26T11:35:39.679Z,100.00
2023-03-26T11:38:37.545Z,100.00
2023-03-26T11:41:13.139Z,100.00
2023-03-26T11:43:39.640Z,100.00
2023-03-26T11:46:12.095Z,100.00
2023-03-26T11:48:57.653Z,100.00
2023-03-26T11:51:36.865Z,100.00
2023-03-26T11:54:05.607Z,100.00
2023-03-26T11:56:41.220Z,100.00
2023-03-26T11:59:45.119Z,100.00
2023-03-26T12:02:29.877Z,100.00
2023-03-26T12:05:18.571Z,100.00
2023-03-26T12:07:59.725Z,100.00
2023-03-26T12:10:39.661Z,100.00
2023-03-26T12:13:29.036Z,100.00
2023-03-26T12:16:05.863Z,98.69
2023-03-26T12:18:32.778Z,98.76
2023-03-26T12:21:08.549Z,96.81
2023-03-26T12:23:42.644Z,96.58
2023-03-26T12:26:20.820Z,99.38
2023-03-26T12:28:51.170Z,98.41
2023-03-26T12:31:19.656Z,96.33
2023-03-26T12:34:04.355Z,95.21
2023-03-26T12:36:35.913Z,99.73
2023-03-26T12:40:09.178Z,97.19
2023-03-26T12:44:49.666Z,94.21
2023-03-26T12:45:29.869Z,91.80
2023-03-26T12:48:03.524Z,93.60
2023-03-26T12:51:12.730Z,91.42
2023-03-26T12:53:50.525Z,89.76
2023-03-26T12:56:38.537Z,89.61
2023-03-26T12:59:39.648Z,90.34
2023-03-26T13:02:44.063Z,94.09
2023-03-26T13:05:29.605Z,93.32
2023-03-26T13:08:50.670Z,89.31
2023-03-26T13:11:38.100Z,88.41
2023-03-26T13:14:30.883Z,89.51
2023-03-26T13:17:18.374Z,91.24
2023-03-26T13:19:51.609Z,88.31
2023-03-26T13:22:46.608Z,92.37
2023-03-26T13:25:18.882Z,91.26
2023-03-26T13:27:54.581Z,85.60
2023-03-26T13:30:44.763Z,87.52
2023-03-26T13:33:30.369Z,84.69
2023-03-26T13:36:25.133Z,85.06
2023-03-26T13:39:16.313Z,79.95
2023-03-26T13:41:51.230Z,82.72
2023-03-26T13:44:32.708Z,86.21
2023-03-26T13:47:09.548Z,83.77
2023-03-26T13:49:56.777Z,81.34
2023-03-26T13:52:23.353Z,81.98
2023-03-26T13:54:55.288Z,83.63
2023-03-26T13:57:29.983Z,84.10
2023-03-26T14:00:12.703Z,81.60
2023-03-26T14:02:41.665Z,82.08
2023-03-26T14:05:30.521Z,78.98
2023-03-26T14:08:05.886Z,80.73
2023-03-26T14:10:38.696Z,83.27
2023-03-26T14:13:16.351Z,81.97
2023-03-26T14:15:56.155Z,81.43
2023-03-26T14:18:22.890Z,79.92
2023-03-26T14:21:13.281Z,83.00
2023-03-26T14:24:17.801Z,81.45
2023-03-26T14:27:15.667Z,79.71
2023-03-26T14:29:59.520Z,78.24
2023-03-26T14:32:52.371Z,78.28
2023-03-26T14:35:46.584Z,84.92
2023-03-26T14:38:42.781Z,77.02
2023-03-26T14:41:29.529Z,76.83
2023-03-26T14:44:27.499Z,78.91
2023-03-26T14:47:20.582Z,77.01
2023-03-26T14:50:21.630Z,74.91
2023-03-26T14:52:52.287Z,78.15
2023-03-26T14:55:48.530Z,77.71
2023-03-26T14:58:44.170Z,83.98
2023-03-26T15:01:27.629Z,77.22
2023-03-26T15:04:35.288Z,76.07
2023-03-26T15:07:11.143Z,80.35
2023-03-26T15:10:15.163Z,76.03
2023-03-26T15:13:20.422Z,74.57
2023-03-26T15:16:17.843Z,79.18
2023-03-26T15:19:17.725Z,82.25
2023-03-26T15:22:13.227Z,82.87
2023-03-26T15:25:04.671Z,82.70
2023-03-26T15:28:00.169Z,76.40
2023-03-26T15:30:48.663Z,80.70
2023-03-26T15:33:39.255Z,78.66
2023-03-26T15:36:24.090Z,74.71
2023-03-26T15:39:15.646Z,72.41
2023-03-26T15:41:52.085Z,75.87
2023-03-26T15:44:28.557Z,77.68
2023-03-26T15:47:13.897Z,77.42
2023-03-26T15:49:45.706Z,70.64
2023-03-26T15:52:29.701Z,72.95
2023-03-26T15:55:08.568Z,72.24
2023-03-26T15:58:18.367Z,78.36
2023-03-26T16:01:26.718Z,74.60
2023-03-26T16:04:32.611Z,73.78
2023-03-26T16:07:43.925Z,77.48
2023-03-26T16:10:56.051Z,71.00
2023-03-26T16:13:33.993Z,73.69
2023-03-26T16:16:04.110Z,77.37
2023-03-26T16:18:42.203Z,70.90
2023-03-26T16:21:32.351Z,73.77
2023-03-26T16:24:02.689Z,73.18
2023-03-26T16:26:44.690Z,70.61
2023-03-26T16:29:14.506Z,74.24
2023-03-26T16:32:04.722Z,73.19
2023-03-26T16:34:52.927Z,77.67
2023-03-26T16:38:09.153Z,74.96
2023-03-26T16:40:49.062Z,69.14
2023-03-26T16:43:41.855Z,69.56
2023-03-26T16:46:15.436Z,72.81
2023-03-26T16:49:00.678Z,68.20
2023-03-26T16:51:43.252Z,77.49
2023-03-26T16:54:18.817Z,74.83
2023-03-26T16:57:01.176Z,72.87
2023-03-26T16:59:43.074Z,74.43
2023-03-26T17:02:17.119Z,77.29
2023-03-26T17:04:47.585Z,77.17
2023-03-26T17:07:37.409Z,77.64
2023-03-26T17:10:36.452Z,74.28
2023-03-26T17:13:16.795Z,73.09
2023-03-26T17:16:29.280Z,78.39
2023-03-26T17:19:09.255Z,76.00
2023-03-26T17:22:01.586Z,75.62
2023-03-26T17:24:54.066Z,72.30
2023-03-26T17:27:30.869Z,76.84
2023-03-26T17:30:03.706Z,72.31
2023-03-26T17:32:55.434Z,76.59
2023-03-26T17:35:49.595Z,72.21
2023-03-26T17:38:25.023Z,74.12
2023-03-26T17:40:56.051Z,73.05
2023-03-26T17:43:38.002Z,75.92
2023-03-26T17:46:24.953Z,77.20
2023-03-26T17:49:17.349Z,75.69
2023-03-26T17:52:05.953Z,73.00
2023-03-26T17:54:44.439Z,72.33
2023-03-26T17:57:21.490Z,73.79
2023-03-26T17:59:50.614Z,75.61
2023-03-26T18:02:22.025Z,76.53
2023-03-26T18:04:54.495Z,73.73
2023-03-26T18:08:02.904Z,77.94
2023-03-26T18:10:42.265Z,76.05
2023-03-26T18:13:15.788Z,75.93
2023-03-26T18:15:51.559Z,73.33
2023-03-26T18:18:36.825Z,74.84
2023-03-26T18:21:08.954Z,75.72
2023-03-26T18:23:38.949Z,73.54
2023-03-26T18:26:13.782Z,75.94
2023-03-26T18:28:43.707Z,75.50
2023-03-26T18:31:22.663Z,74.16
2023-03-26T18:33:54.784Z,76.69
2023-03-26T18:36:24.630Z,73.04
2023-03-26T18:38:56.078Z,73.37
2023-03-26T18:41:33.089Z,78.14
2023-03-26T18:44:04.497Z,76.79
2023-03-26T18:46:33.368Z,76.81
2023-03-26T18:49:01.298Z,77.50
2023-03-26T18:51:29.492Z,76.32
2023-03-26T18:54:01.998Z,79.34
2023-03-26T18:56:28.919Z,80.80
2023-03-26T18:58:58.801Z,77.62
2023-03-26T19:01:31.092Z,78.79
2023-03-26T19:04:02.167Z,76.41
2023-03-26T19:06:29.839Z,78.35
2023-03-26T19:08:58.914Z,77.46
2023-03-26T19:11:26.584Z,78.40
2023-03-26T19:14:06.836Z,77.13
2023-03-26T19:16:36.638Z,77.39
2023-03-26T19:19:06.847Z,77.26
2023-03-26T19:21:35.771Z,77.10
2023-03-26T19:24:04.158Z,78.11
2023-03-26T19:26:31.663Z,76.96
2023-03-26T19:28:59.092Z,79.84
2023-03-26T19:31:37.164Z,78.21
2023-03-26T19:34:14.059Z,77.22
2023-03-26T19:36:58.374Z,80.89
2023-03-26T19:39:37.277Z,78.30
2023-03-26T19:42:06.595Z,77.50
2023-03-26T19:44:33.688Z,78.24
2023-03-26T19:47:08.870Z,79.49
2023-03-26T19:49:48.467Z,79.77
2023-03-26T19:52:20.879Z,78.81
2023-03-26T19:55:00.310Z,79.62
2023-03-26T19:57:32.227Z,80.29
2023-03-26T19:59:59.629Z,80.65
2023-03-26T20:02:27.457Z,81.69
2023-03-26T20:04:54.305Z,81.84
2023-03-26T20:07:35.643Z,82.32
2023-03-26T20:10:05.677Z,82.49
2023-03-26T20:12:33.051Z,82.85
2023-03-26T20:15:01.912Z,83.00
2023-03-26T20:17:31.457Z,83.01
2023-03-26T20:19:58.648Z,83.36
2023-03-26T20:22:26.735Z,83.27
2023-03-26T20:24:54.821Z,84.15
2023-03-26T20:27:22.451Z,83.31
2023-03-26T20:29:49.266Z,84.94
2023-03-26T20:32:27.286Z,84.41
2023-03-26T20:34:54.620Z,84.86
2023-03-26T20:37:21.767Z,84.65
2023-03-26T20:39:50.123Z,84.44
2023-03-26T20:42:17.237Z,84.87
2023-03-26T20:44:43.994Z,84.98
2023-03-26T20:47:11.781Z,85.63
2023-03-26T20:49:40.346Z,85.61
2023-03-26T20:52:07.201Z,85.10
2023-03-26T20:54:33.889Z,86.00
2023-03-26T20:57:00.649Z,86.09
2023-03-26T20:59:28.343Z,86.04
2023-03-26T21:01:57.912Z,86.19
2023-03-26T21:04:26.319Z,86.27
2023-03-26T21:06:55.662Z,86.58
2023-03-26T21:09:35.474Z,86.64
2023-03-26T21:12:08.400Z,86.87
2023-03-26T21:14:42.426Z,87.13
2023-03-26T21:17:18.589Z,87.41
2023-03-26T21:19:46.150Z,87.41
2023-03-26T21:22:37.794Z,87.81
2023-03-26T21:25:22.833Z,87.71
2023-03-26T21:28:08.378Z,87.81
2023-03-26T21:30:36.126Z,88.01
2023-03-26T21:33:05.706Z,88.20
2023-03-26T21:35:42.094Z,88.21
2023-03-26T21:38:09.960Z,88.07
2023-03-26T21:40:39.027Z,88.12
2023-03-26T21:43:07.481Z,88.21
2023-03-26T21:45:34.336Z,88.22
2023-03-26T21:48:01.817Z,88.14
2023-03-26T21:50:28.842Z,88.36
2023-03-26T21:52:57.859Z,88.60
2023-03-26T21:55:24.859Z,88.46
2023-03-26T21:58:04.174Z,88.57
2023-03-26T22:00:49.313Z,88.41
2023-03-26T22:03:16.101Z,88.77
2023-03-26T22:05:57.528Z,88.78
2023-03-26T22:08:50.558Z,89.62
2023-03-26T22:11:17.195Z,89.62
2023-03-26T22:13:43.719Z,89.16
2023-03-26T22:16:10.818Z,88.97
2023-03-26T22:18:37.745Z,89.09
2023-03-26T22:21:04.842Z,89.46
2023-03-26T22:23:34.409Z,89.50
2023-03-26T22:26:01.121Z,89.46
2023-03-26T22:28:27.783Z,90.08
2023-03-26T22:30:54.652Z,90.11
2023-03-26T22:33:21.643Z,89.83
2023-03-26T22:35:48.255Z,90.35
2023-03-26T22:38:16.954Z,90.34
2023-03-26T22:40:43.570Z,90.11
2023-03-26T22:43:11.500Z,91.22
2023-03-26T22:45:38.162Z,90.80
2023-03-26T22:48:05.115Z,91.93
2023-03-26T22:50:32.908Z,91.76
2023-03-26T22:52:59.638Z,90.95
2023-03-26T22:55:28.198Z,91.16
2023-03-26T22:57:55.760Z,91.66
2023-03-26T23:00:22.572Z,91.39
2023-03-26T23:02:50.066Z,91.10
2023-03-26T23:05:19.933Z,90.58
2023-03-26T23:07:47.341Z,91.88
2023-03-26T23:10:14.026Z,91.09
2023-03-26T23:12:41.622Z,91.11
2023-03-26T23:15:09.709Z,91.43
2023-03-26T23:17:37.941Z,90.99
2023-03-26T23:20:12.532Z,91.56
2023-03-26T23:22:39.157Z,91.50
2023-03-26T23:25:06.743Z,90.92
2023-03-26T23:27:35.871Z,91.35
2023-03-26T23:30:04.269Z,90.47
2023-03-26T23:32:31.233Z,91.49
2023-03-26T23:34:57.957Z,92.72
2023-03-26T23:37:24.755Z,92.10
2023-03-26T23:39:53.690Z,92.26
2023-03-26T23:42:29.205Z,92.27
2023-03-26T23:44:57.113Z,92.65
2023-03-26T23:47:24.206Z,92.18
2023-03-26T23:49:51.016Z,92.00
2023-03-26T23:52:17.778Z,92.03
2023-03-26T23:54:45.068Z,91.89
2023-03-26T23:57:11.969Z,92.51
2023-03-26T23:59:38.869Z,93.13
